Time;durP1;ratioP1;P1;durP2;ratioP2;P2;SDS_P1;SDS_P2;PMS_P1;PMS_P2;Temp;Humidity;BMP_temperature;BMP_pressure;BME280_temperature;BME280_humidity;BME280_pressure;Samples;Min_cycle;Max_cycle;Signal;HPM_P1;HPM_P2
2022/01/10 00:00:48;;;;;;;;;30.25;29.00;;;;;6.78;78.63;100397.13;4997767;28;45474;-80
2022/01/10 00:03:14;;;;;;;;;29.75;29.00;;;;;6.58;78.68;100374.13;4997433;28;45392;-80
2022/01/10 00:05:39;;;;;;;;;32.50;30.00;;;;;6.75;77.96;100397.97;4997594;28;45597;-82
2022/01/10 00:08:05;;;;;;;;;33.50;33.50;;;;;6.53;78.16;100353.97;4997657;28;45425;-82
2022/01/10 00:10:32;;;;;;;;;32.00;27.00;;;;;6.51;78.20;100355.66;4997476;28;45466;-81
2022/01/10 00:12:58;;;;;;;;;37.25;34.75;;;;;6.47;77.78;100352.13;4998030;28;45241;-81
2022/01/10 00:15:24;;;;;;;;;39.25;37.00;;;;;6.62;77.60;100382.94;4997420;28;45454;-83
2022/01/10 00:17:49;;;;;;;;;49.00;38.25;;;;;6.61;78.21;100386.41;4997747;28;45345;-82
2022/01/10 00:20:17;;;;;;;;;32.50;32.50;;;;;6.78;78.12;100418.06;4997752;28;45253;-81
2022/01/10 00:22:46;;;;;;;;;32.25;29.75;;;;;6.68;78.02;100385.63;4997830;28;45417;-83
2022/01/10 00:25:14;;;;;;;;;40.25;37.25;;;;;6.84;78.17;100421.69;4997612;28;46470;-80
2022/01/10 00:27:40;;;;;;;;;44.25;36.00;;;;;6.90;78.09;100439.25;4997646;28;45312;-80
2022/01/10 00:30:06;;;;;;;;;36.00;33.25;;;;;6.57;78.35;100361.88;4997484;28;45194;-82
2022/01/10 00:32:32;;;;;;;;;31.25;30.25;;;;;6.72;79.18;100389.19;4997765;28;45190;-81
2022/01/10 00:34:57;;;;;;;;;40.25;35.75;;;;;6.99;79.20;100436.81;4997467;28;46085;-79
2022/01/10 00:37:23;;;;;;;;;38.25;32.50;;;;;6.85;78.74;100414.72;4997247;28;45390;-81
2022/01/10 00:39:49;;;;;;;;;35.00;32.00;;;;;6.98;78.62;100437.66;4996118;28;45776;-80
2022/01/10 00:42:15;;;;;;;;;6.00;6.00;;;;;7.08;79.24;100454.41;4979845;28;45459;-79
2022/01/10 00:44:46;;;;;;;;;37.75;33.75;;;;;7.08;79.47;100460.53;4997102;28;45521;-79
2022/01/10 00:47:11;;;;;;;;;35.50;30.50;;;;;6.85;79.43;100422.56;4997659;28;45237;-80
2022/01/10 00:49:37;;;;;;;;;36.75;35.25;;;;;6.97;78.96;100448.97;4997281;28;45242;-79
2022/01/10 00:52:03;;;;;;;;;37.25;34.00;;;;;6.73;78.90;100415.41;4997351;28;45372;-81
2022/01/10 00:54:29;;;;;;;;;35.75;29.50;;;;;6.82;78.77;100438.25;4999659;28;45431;-80
2022/01/10 00:56:54;;;;;;;;;35.25;32.75;;;;;6.57;79.29;100398.53;5000470;28;45507;-82
2022/01/10 00:59:20;;;;;;;;;33.00;29.25;;;;;6.71;79.39;100424.09;5000475;28;45451;-80
2022/01/10 01:01:45;;;;;;;;;32.50;28.00;;;;;6.11;79.67;100317.44;5000623;28;45494;-81
2022/01/10 01:04:11;;;;;;;;;40.75;35.50;;;;;6.65;79.74;100421.34;5000227;28;46293;-80
2022/01/10 01:06:37;;;;;;;;;26.75;25.00;;;;;6.79;79.13;100461.72;5000677;28;45324;-80
2022/01/10 01:09:05;;;;;;;;;32.50;27.50;;;;;6.56;79.13;100416.81;4982716;28;45271;-80
2022/01/10 01:14:24;;;;;;;;;29.50;27.00;;;;;6.82;79.24;100482.75;5000166;28;45727;-80
2022/01/10 01:17:08;;;;;;;;;32.00;30.00;;;;;6.56;80.19;100440.38;5000334;28;45222;-79
2022/01/10 01:25:02;;;;;;;;;44.00;39.00;;;;;6.59;80.43;100466.59;5000188;28;45882;-81
2022/01/10 01:27:27;;;;;;;;;39.50;37.50;;;;;6.58;80.08;100475.31;5000276;28;45340;-82
2022/01/10 01:29:53;;;;;;;;;37.50;32.50;;;;;6.78;80.13;100510.59;5000468;28;45151;-80
2022/01/10 01:32:18;;;;;;;;;38.75;37.75;;;;;6.70;80.69;100499.13;5000342;28;45198;-79
2022/01/10 01:34:43;;;;;;;;;35.25;32.50;;;;;6.90;80.75;100535.25;4999931;28;45482;-80
2022/01/10 01:37:11;;;;;;;;;45.75;39.75;;;;;6.35;80.00;100442.59;5000036;28;45233;-78
2022/01/10 01:39:36;;;;;;;;;45.25;38.00;;;;;6.90;80.07;100540.50;4982196;28;45263;-80
2022/01/10 01:42:17;;;;;;;;;40.75;39.00;;;;;6.96;79.99;100546.72;5000382;28;45419;-80
2022/01/10 01:44:47;;;;;;;;;45.75;39.00;;;;;6.84;80.46;100541.25;4999649;28;45623;-80
2022/01/10 01:47:12;;;;;;;;;40.00;37.00;;;;;6.66;80.24;100499.88;4999862;28;45213;-80
2022/01/10 01:49:38;;;;;;;;;33.75;33.50;;;;;6.72;79.46;100510.50;4999994;28;45430;-79
2022/01/10 01:52:03;;;;;;;;;35.00;34.50;;;;;6.44;78.99;100463.69;4999641;28;45330;-79
2022/01/10 01:54:29;;;;;;;;;36.50;33.75;;;;;6.68;78.22;100516.50;4999322;28;45394;-81
2022/01/10 01:56:55;;;;;;;;;30.50;27.75;;;;;6.70;79.40;100527.91;4999647;28;45793;-80
2022/01/10 01:59:21;;;;;;;;;35.75;33.75;;;;;6.82;79.31;100556.06;4999855;28;45311;-84
2022/01/10 02:01:46;;;;;;;;;40.50;36.75;;;;;6.61;79.24;100521.56;4999919;28;45236;-84
2022/01/10 02:04:12;;;;;;;;;36.00;33.50;;;;;6.75;80.04;100549.81;4999152;28;45562;-83
2022/01/10 02:06:37;;;;;;;;;44.00;40.50;;;;;6.38;79.04;100492.34;4999407;28;45424;-81
2022/01/10 02:09:03;;;;;;;;;39.25;33.50;;;;;6.82;79.56;100575.25;4999926;28;45291;-80
2022/01/10 02:11:28;;;;;;;;;34.75;32.75;;;;;6.46;80.58;100533.53;5000018;28;45243;-80
2022/01/10 02:13:54;;;;;;;;;39.00;38.00;;;;;6.54;80.15;100536.31;4999516;28;46691;-80
2022/01/10 02:16:31;;;;;;;;;37.25;35.00;;;;;6.55;80.54;100559.00;4999437;28;45215;-80
2022/01/10 02:18:57;;;;;;;;;36.00;32.75;;;;;6.27;81.11;100519.16;4999539;28;45293;-82
2022/01/10 02:21:23;;;;;;;;;34.50;34.50;;;;;6.64;80.80;100590.59;4999236;28;45198;-81
2022/01/10 02:23:49;;;;;;;;;41.75;35.75;;;;;6.32;80.30;100536.69;4999264;28;46396;-80
2022/01/10 02:26:15;;;;;;;;;38.00;31.50;;;;;6.26;81.12;100537.47;4999303;28;45307;-79
2022/01/10 02:28:40;;;;;;;;;43.75;34.00;;;;;6.29;80.92;100546.25;4999577;28;45325;-82
2022/01/10 02:31:07;;;;;;;;;33.75;31.50;;;;;6.41;80.79;100574.38;4999687;28;45496;-83
2022/01/10 02:33:32;;;;;;;;;41.00;34.00;;;;;6.36;81.35;100572.53;4999036;28;45578;-82
2022/01/10 02:38:31;;;;;;;;;34.00;32.25;;;;;6.17;81.21;100561.69;4999198;28;45338;-83
2022/01/10 02:40:58;;;;;;;;;35.00;33.25;;;;;6.22;81.92;100572.22;4999503;28;45365;-83
2022/01/10 02:43:23;;;;;;;;;32.00;30.75;;;;;6.06;81.42;100563.19;4998648;28;45529;-82
2022/01/10 02:45:50;;;;;;;;;36.50;33.50;;;;;6.12;82.08;100581.59;4999039;28;45166;-82
2022/01/10 02:48:15;;;;;;;;;42.00;32.50;;;;;6.05;82.21;100584.03;4981336;28;45335;-82
2022/01/10 02:50:41;;;;;;;;;35.75;30.75;;;;;5.79;81.81;100547.69;4998624;28;45174;-83
2022/01/10 02:53:07;;;;;;;;;31.50;28.25;;;;;5.90;82.59;100572.38;4998961;28;46144;-82
2022/01/10 02:55:33;;;;;;;;;38.25;35.00;;;;;5.72;82.08;100561.47;4998992;28;45415;-83
2022/01/10 02:57:58;;;;;;;;;37.75;35.25;;;;;5.89;82.38;100596.72;4999002;28;45886;-82
2022/01/10 03:00:25;;;;;;;;;32.00;31.25;;;;;5.75;82.60;100592.88;4999137;28;45728;-80
2022/01/10 03:02:54;;;;;;;;;31.25;28.25;;;;;5.53;82.11;100565.34;4998569;28;45463;-80
2022/01/10 03:05:21;;;;;;;;;34.50;28.00;;;;;5.61;82.64;100592.56;4998781;28;45284;-78
2022/01/10 03:07:48;;;;;;;;;36.25;33.50;;;;;5.88;82.47;100638.53;4998734;28;45161;-80
2022/01/10 03:10:14;;;;;;;;;33.00;32.33;;;;;5.44;83.47;100560.78;4998598;28;46126;-79
2022/01/10 03:12:40;;;;;;;;;29.33;27.00;;;;;5.84;82.27;100636.66;4998709;28;46714;-79
2022/01/10 03:15:08;;;;;;;;;37.33;32.67;;;;;5.83;82.68;100645.34;4998768;28;45248;-79
2022/01/10 03:17:34;;;;;;;;;35.33;34.00;;;;;5.71;83.15;100636.38;4998017;28;45325;-79
2022/01/10 03:20:00;;;;;;;;;36.00;35.00;;;;;5.33;83.07;100574.41;4998711;28;45414;-78
2022/01/10 03:22:26;;;;;;;;;39.67;36.67;;;;;5.81;82.64;100657.50;4997959;28;47973;-78
2022/01/10 03:24:53;;;;;;;;;39.67;34.33;;;;;5.61;82.40;100623.03;4997960;28;45462;-77
2022/01/10 03:27:19;;;;;;;;;39.33;35.00;;;;;5.45;82.48;100608.69;4998854;28;45408;-78
2022/01/10 03:29:44;;;;;;;;;38.67;38.00;;;;;5.71;82.89;100653.78;4998888;28;45361;-81
2022/01/10 03:32:11;;;;;;;;;39.00;38.33;;;;;5.77;83.47;100666.09;4998318;28;45348;-81
2022/01/10 03:34:37;;;;;;;;;42.33;35.33;;;;;5.56;82.78;100633.34;4980597;28;45382;-80
2022/01/10 03:37:03;;;;;;;;;33.33;32.00;;;;;5.43;83.06;100618.22;4998218;28;45487;-81
2022/01/10 03:39:28;;;;;;;;;39.33;35.67;;;;;5.40;82.98;100612.91;4998837;28;45250;-80
2022/01/10 03:41:53;;;;;;;;;35.67;33.33;;;;;5.60;82.88;100658.75;4998257;28;47979;-81
2022/01/10 03:44:19;;;;;;;;;45.33;40.00;;;;;5.37;82.69;100618.94;4998269;28;45256;-81
2022/01/10 03:46:44;;;;;;;;;40.33;35.67;;;;;5.68;83.37;100680.72;4998415;28;45234;-81
2022/01/10 03:49:10;;;;;;;;;39.67;36.00;;;;;5.62;83.23;100670.09;4998441;28;45198;-82
2022/01/10 03:51:35;;;;;;;;;33.33;33.00;;;;;5.33;83.13;100630.16;4997112;28;45447;-80
2022/01/10 03:54:01;;;;;;;;;47.00;41.00;;;;;5.52;83.35;100675.94;4996881;28;45508;-81
2022/01/10 03:56:29;;;;;;;;;44.00;39.00;;;;;5.59;83.64;100687.44;4996687;28;45407;-81
2022/01/10 03:58:55;;;;;;;;;42.67;38.67;;;;;5.58;82.73;100688.25;4998235;28;45431;-82
2022/01/10 04:01:20;;;;;;;;;63.33;48.67;;;;;5.18;83.43;100641.91;4998912;28;45434;-82
2022/01/10 04:03:46;;;;;;;;;51.67;46.00;;;;;5.24;83.11;100655.13;4998542;28;45327;-80
2022/01/10 04:06:11;;;;;;;;;44.67;40.67;;;;;5.47;83.22;100689.69;4998123;28;45317;-81
2022/01/10 04:08:37;;;;;;;;;53.00;43.33;;;;;5.19;83.44;100664.56;4998140;28;45389;-80
2022/01/10 04:11:04;;;;;;;;;48.00;39.33;;;;;5.44;83.55;100703.56;4997990;28;46418;-82
2022/01/10 04:13:30;;;;;;;;;52.00;44.33;;;;;5.19;83.68;100680.22;4998202;28;45370;-83
2022/01/10 04:15:55;;;;;;;;;53.67;42.00;;;;;5.28;83.71;100696.16;4998201;28;45235;-82
2022/01/10 04:18:21;;;;;;;;;43.00;40.33;;;;;5.04;83.40;100660.69;4998394;28;45251;-83
2022/01/10 04:20:47;;;;;;;;;44.33;40.67;;;;;5.05;83.36;100679.84;4997861;28;46432;-82
2022/01/10 04:23:14;;;;;;;;;56.00;46.33;;;;;5.00;83.33;100669.25;4997866;28;45282;-82
2022/01/10 04:25:41;;;;;;;;;50.67;43.33;;;;;4.92;83.52;100662.03;4998564;28;45363;-82
2022/01/10 04:28:06;;;;;;;;;61.33;46.00;;;;;5.24;84.27;100731.75;4996648;28;45470;-82
2022/01/10 04:30:32;;;;;;;;;52.67;47.00;;;;;5.02;84.14;100698.91;4997970;28;45465;-80
2022/01/10 04:32:59;;;;;;;;;64.67;51.00;;;;;5.24;84.62;100736.09;4997588;28;45614;-81
2022/01/10 04:35:25;;;;;;;;;56.67;47.67;;;;;4.78;84.61;100659.06;4997873;28;45256;-81
2022/01/10 04:37:51;;;;;;;;;56.33;44.33;;;;;5.03;84.38;100732.03;4997689;28;45361;-81
2022/01/10 04:40:17;;;;;;;;;57.33;46.33;;;;;5.19;83.88;100754.22;4997643;28;46451;-82
2022/01/10 04:42:43;;;;;;;;;63.00;52.33;;;;;4.88;84.23;100704.56;4997749;28;45278;-83
2022/01/10 04:45:09;;;;;;;;;57.33;45.67;;;;;4.74;83.82;100685.88;4997447;28;45444;-81
2022/01/10 04:47:34;;;;;;;;;64.67;54.33;;;;;5.12;83.78;100765.34;4997824;28;45285;-82
2022/01/10 04:52:26;;;;;;;;;71.67;57.67;;;;;4.81;84.19;100742.63;4997201;28;45338;-81
2022/01/10 04:54:51;;;;;;;;;68.00;54.33;;;;;4.78;84.23;100740.84;4997365;28;45447;-81
2022/01/10 04:57:17;;;;;;;;;60.67;50.67;;;;;4.66;83.91;100726.53;4997756;28;45347;-81
2022/01/10 04:59:42;;;;;;;;;76.00;61.67;;;;;4.95;84.08;100790.94;4997122;28;45381;-82
2022/01/10 05:02:08;;;;;;;;;76.33;61.00;;;;;4.79;83.97;100763.47;4997040;28;45365;-82
2022/01/10 05:04:33;;;;;;;;;84.33;64.00;;;;;4.70;83.79;100755.34;4997068;28;45463;-82
2022/01/10 05:06:59;;;;;;;;;79.00;63.00;;;;;4.74;83.82;100767.66;4997620;28;45199;-82
2022/01/10 05:09:24;;;;;;;;;70.00;57.67;;;;;4.76;83.96;100775.56;4996865;28;46400;-82
2022/01/10 05:11:50;;;;;;;;;81.00;63.00;;;;;4.83;83.72;100793.16;4997002;28;45222;-82
2022/01/10 05:14:15;;;;;;;;;80.67;61.67;;;;;4.59;83.74;100751.53;4997343;28;45214;-81
2022/01/10 05:16:41;;;;;;;;;72.33;60.00;;;;;4.66;83.75;100771.78;4997584;28;45258;-81
2022/01/10 05:19:09;;;;;;;;;72.00;58.33;;;;;4.60;83.58;100787.22;4997001;28;46449;-83
2022/01/10 05:21:35;;;;;;;;;83.00;62.00;;;;;4.64;83.85;100790.81;4996733;28;45394;-82
2022/01/10 05:24:00;;;;;;;;;77.33;61.00;;;;;4.54;83.71;100773.97;4996636;28;45695;-82
2022/01/10 05:26:25;;;;;;;;;75.67;60.67;;;;;4.62;83.81;100798.59;4997472;28;45440;-83
2022/01/10 05:28:55;;;;;;;;;74.00;57.33;;;;;4.80;83.55;100834.81;4997201;28;45577;-83
2022/01/10 05:31:21;;;;;;;;;69.33;57.33;;;;;4.33;83.74;100761.13;4996750;28;45177;-83
2022/01/10 05:33:47;;;;;;;;;77.67;60.00;;;;;4.37;83.81;100776.03;4997122;28;45205;-83
2022/01/10 05:36:12;;;;;;;;;73.33;56.67;;;;;4.74;83.81;100848.56;4997334;28;45338;-83
2022/01/10 05:38:37;;;;;;;;;71.00;57.67;;;;;4.49;83.75;100802.53;4996965;28;45339;-84
2022/01/10 05:41:03;;;;;;;;;70.67;58.00;;;;;4.31;83.82;100774.97;5000053;28;45332;-82
2022/01/10 05:43:28;;;;;;;;;73.00;59.67;;;;;4.68;84.36;100850.09;5000634;28;45788;-82
2022/01/10 05:45:54;;;;;;;;;64.33;55.33;;;;;4.29;83.63;100790.56;5000217;28;45424;-83
2022/01/10 05:48:26;;;;;;;;;68.00;57.67;;;;;4.32;83.70;100805.41;4999685;28;45541;-82
2022/01/10 05:50:52;;;;;;;;;64.00;51.33;;;;;4.43;83.91;100838.84;4999985;28;45243;-83
2022/01/10 05:53:19;;;;;;;;;73.00;56.67;;;;;3.83;83.96;100736.88;5000071;28;45261;-83
2022/01/10 05:55:45;;;;;;;;;71.67;54.67;;;;;4.58;83.66;100880.22;5000159;28;45583;-81
2022/01/10 05:58:11;;;;;;;;;70.33;57.33;;;;;4.54;84.03;100881.81;4999702;28;46283;-84
2022/01/10 06:00:38;;;;;;;;;68.33;57.00;;;;;4.19;83.73;100835.41;4999724;28;45427;-83
2022/01/10 06:03:03;;;;;;;;;71.33;57.67;;;;;4.15;83.94;100833.50;4981824;28;45355;-83
2022/01/10 06:05:30;;;;;;;;;81.00;62.67;;;;;4.32;83.48;100868.88;5000060;28;45265;-83
2022/01/10 06:08:02;;;;;;;;;77.00;61.33;;;;;4.50;83.25;100903.44;4999790;28;46582;-83
2022/01/10 06:10:28;;;;;;;;;79.67;62.67;;;;;4.18;83.23;100851.84;4999202;28;45371;-81
2022/01/10 06:12:55;;;;;;;;;82.00;64.00;;;;;4.18;83.10;100868.38;4999761;28;45416;-80
2022/01/10 06:15:21;;;;;;;;;74.33;60.33;;;;;4.45;82.85;100924.97;4999726;28;45394;-81
2022/01/10 06:17:47;;;;;;;;;80.00;63.67;;;;;4.42;83.26;100930.97;4999456;28;45403;-82
2022/01/10 06:20:13;;;;;;;;;73.00;56.33;;;;;4.45;84.05;100948.44;4999424;28;45341;-82
2022/01/10 06:22:38;;;;;;;;;77.33;61.33;;;;;4.05;83.73;100870.53;4999576;28;45270;-82
2022/01/10 06:25:06;;;;;;;;;73.33;61.33;;;;;4.44;83.43;100946.66;4999679;28;45448;-84
2022/01/10 06:27:31;;;;;;;;;73.00;58.67;;;;;4.14;83.47;100900.41;4999410;28;45379;-82
2022/01/10 06:29:57;;;;;;;;;67.67;57.67;;;;;4.43;83.19;100960.53;4998700;28;45301;-80
2022/01/10 06:32:22;;;;;;;;;74.00;57.00;;;;;4.44;83.17;100963.19;4999083;28;45320;-79
2022/01/10 06:34:48;;;;;;;;;69.00;55.00;;;;;4.57;83.31;100960.19;5000553;28;45402;-79
2022/01/10 06:37:13;;;;;;;;;57.33;43.00;;;;;4.50;83.22;100939.94;4998632;28;45356;-81
2022/01/10 06:39:39;;;;;;;;;51.33;44.33;;;;;4.46;84.44;100929.34;4999031;28;45690;-84
2022/01/10 06:42:05;;;;;;;;;57.00;48.33;;;;;4.36;84.62;100920.31;4998504;28;45483;-80
2022/01/10 06:44:31;;;;;;;;;63.33;48.00;;;;;4.79;84.19;100963.53;4998617;28;45436;-78
2022/01/10 06:46:57;;;;;;;;;53.33;43.33;;;;;4.65;83.95;100926.53;4998938;28;45619;-80
2022/01/10 06:49:23;;;;;;;;;55.00;43.00;;;;;4.98;83.98;100993.78;4998510;28;45396;-84
2022/01/10 06:51:49;;;;;;;;;47.00;42.33;;;;;4.52;83.70;100913.91;4997358;28;45487;-86
2022/01/10 06:54:15;;;;;;;;;44.33;39.33;;;;;4.92;84.37;100991.81;4999432;28;45413;-80
2022/01/10 06:56:40;;;;;;;;;45.33;39.00;;;;;4.95;84.25;100998.91;4998978;28;46465;-85
2022/01/10 06:59:06;;;;;;;;;35.33;33.33;;;;;4.95;83.53;101010.22;4998661;28;45494;-82
2022/01/10 07:01:32;;;;;;;;;37.00;29.67;;;;;4.75;83.47;100982.56;4998585;28;45446;-83
2022/01/10 07:03:57;;;;;;;;;42.00;33.00;;;;;4.53;83.52;100963.53;4998563;28;45352;-84
2022/01/10 07:06:23;;;;;;;;;39.67;39.33;;;;;4.84;84.37;101022.91;4997466;28;45569;-82
2022/01/10 07:08:48;;;;;;;;;49.33;40.00;;;;;4.96;84.57;101055.50;4998794;28;45317;-84
2022/01/10 07:11:14;;;;;;;;;32.33;19.67;;;;;4.66;84.77;100998.78;4981158;28;45362;-84
2022/01/10 07:13:39;;;;;;;;;40.33;37.33;;;;;4.98;84.82;101046.88;4999443;28;45210;-84
2022/01/10 07:16:05;;;;;;;;;47.00;37.67;;;;;5.07;84.65;101072.41;4980603;28;46177;-83
2022/01/10 07:18:30;;;;;;;;;41.00;37.00;;;;;5.16;84.37;101075.34;4998859;28;45272;-84
2022/01/10 07:20:56;;;;;;;;;55.67;42.33;;;;;5.21;84.28;101086.84;4998787;28;45416;-84
2022/01/10 07:23:23;;;;;;;;;50.33;43.00;;;;;4.96;83.95;101037.22;4998654;28;45590;-83
2022/01/10 07:25:49;;;;;;;;;46.00;42.00;;;;;5.30;83.61;101102.81;4980898;28;48135;-85
2022/01/10 07:28:14;;;;;;;;;57.67;45.33;;;;;5.12;82.87;101071.75;4998558;28;45387;-85
2022/01/10 07:30:40;;;;;;;;;60.00;48.00;;;;;5.37;81.91;101104.81;4998649;28;45333;-85
2022/01/10 07:33:05;;;;;;;;;53.67;43.67;;;;;5.23;81.69;101086.91;4998783;28;45575;-84
2022/01/10 07:35:31;;;;;;;;;62.67;49.67;;;;;5.22;81.30;101096.47;4998360;28;45733;-82
2022/01/10 07:37:56;;;;;;;;;64.00;48.00;;;;;5.29;82.05;101121.03;4997563;28;45428;-79
2022/01/10 07:40:21;;;;;;;;;54.33;46.00;;;;;5.21;81.84;101125.09;4995522;28;45432;-82
2022/01/10 07:42:47;;;;;;;;;56.33;48.67;;;;;5.31;80.76;101145.53;4996990;28;45429;-83
2022/01/10 07:45:12;;;;;;;;;61.00;47.00;;;;;5.22;80.44;101140.88;4996986;28;46523;-80
2022/01/10 07:47:38;;;;;;;;;50.33;42.33;;;;;5.11;80.49;101124.78;4996698;28;45389;-82
2022/01/10 07:50:05;;;;;;;;;57.67;47.00;;;;;5.00;80.14;101107.84;4996885;28;45364;-81
2022/01/10 07:52:31;;;;;;;;;54.33;46.33;;;;;5.20;79.94;101146.84;4995935;28;45649;-78
2022/01/10 07:54:57;;;;;;;;;53.00;43.33;;;;;5.29;79.52;101179.41;4996177;28;46697;-85
2022/01/10 07:57:22;;;;;;;;;48.00;41.00;;;;;5.28;79.02;101176.72;4997089;28;45369;-81
2022/01/10 07:59:48;;;;;;;;;42.67;36.67;;;;;5.13;78.39;101180.59;4997071;28;45443;-80
2022/01/10 08:02:14;;;;;;;;;44.67;40.00;;;;;4.93;78.93;101168.50;4995195;28;45521;-79
2022/01/10 08:04:40;;;;;;;;;55.67;44.00;;;;;4.79;78.41;101143.63;4996588;28;46497;-79
2022/01/10 08:07:05;;;;;;;;;50.00;41.33;;;;;4.90;78.60;101167.50;4977298;28;45370;-78
2022/01/10 08:09:31;;;;;;;;;43.33;38.00;;;;;4.95;78.46;101187.75;4995894;28;45454;-77
2022/01/10 08:11:59;;;;;;;;;28.67;28.00;;;;;4.89;78.03;101181.41;4996280;28;45494;-79
2022/01/10 08:14:30;;;;;;;;;24.25;22.00;;;;;4.59;77.62;101176.81;4996609;28;45420;-78
2022/01/10 08:16:56;;;;;;;;;18.00;15.33;;;;;4.78;78.08;101225.38;4979999;28;45544;-77
2022/01/10 08:19:22;;;;;;;;;25.33;20.67;;;;;4.63;78.81;101243.91;4997120;28;45426;-78
2022/01/10 08:21:47;;;;;;;;;25.33;22.00;;;;;4.46;78.75;101227.59;4994778;28;45432;-76
2022/01/10 08:24:13;;;;;;;;;22.00;20.67;;;;;4.49;79.73;101221.63;4996135;28;46191;-79
2022/01/10 08:26:40;;;;;;;;;13.67;13.67;;;;;4.43;79.37;101235.31;4994901;28;45313;-78
2022/01/10 08:29:06;;;;;;;;;19.75;18.25;;;;;4.09;79.73;101174.78;4994934;28;45511;-77
2022/01/10 08:31:31;;;;;;;;;19.33;17.33;;;;;4.19;80.43;101198.72;4996196;28;45415;-78
2022/01/10 08:33:56;;;;;;;;;26.00;22.33;;;;;4.03;79.86;101178.06;4996247;28;45380;-78
2022/01/10 08:36:22;;;;;;;;;20.25;16.25;;;;;4.19;80.51;101223.91;4996403;28;45443;-77
2022/01/10 08:38:47;;;;;;;;;21.67;20.00;;;;;4.45;80.59;101261.44;4995529;28;45452;-77
2022/01/10 08:41:13;;;;;;;;;20.67;18.33;;;;;4.40;80.34;101252.56;4995621;28;45436;-78
2022/01/10 08:43:38;;;;;;;;;23.33;21.33;;;;;4.46;80.21;101271.06;4996115;28;45722;-78
2022/01/10 08:46:04;;;;;;;;;26.00;22.33;;;;;4.44;80.26;101265.78;4995951;28;45553;-77
2022/01/10 08:48:29;;;;;;;;;24.33;20.00;;;;;4.09;80.63;101214.78;4996343;28;45528;-79
2022/01/10 08:50:55;;;;;;;;;28.00;24.00;;;;;3.96;81.17;101208.19;4994676;28;45305;-77
2022/01/10 08:53:21;;;;;;;;;33.33;26.33;;;;;4.33;81.21;101274.88;4995919;28;45443;-77
2022/01/10 08:55:47;;;;;;;;;27.33;24.00;;;;;4.13;81.20;101236.69;4996247;28;45322;-78
2022/01/10 08:58:13;;;;;;;;;24.67;23.33;;;;;4.32;80.96;101286.16;4994524;28;46159;-78
2022/01/10 09:00:39;;;;;;;;;30.00;17.33;;;;;4.21;81.79;101279.63;4995895;28;45474;-78
2022/01/10 09:03:05;;;;;;;;;27.00;23.00;;;;;3.99;81.55;101251.72;4995300;28;46392;-78
2022/01/10 09:05:32;;;;;;;;;0.33;0.33;;;;;4.35;81.87;101314.06;4995921;28;45551;-81
2022/01/10 09:07:59;;;;;;;;;24.33;21.00;;;;;4.28;81.68;101292.97;4995940;28;45420;-80
2022/01/10 09:10:28;;;;;;;;;30.67;27.00;;;;;4.35;81.49;101299.31;4995805;28;45439;-80
2022/01/10 09:12:53;;;;;;;;;29.00;23.00;;;;;4.18;81.53;101287.28;4993412;28;46280;-76
2022/01/10 09:15:19;;;;;;;;;20.67;17.00;;;;;4.45;81.72;101317.13;4997882;28;45304;-76
2022/01/10 09:17:44;;;;;;;;;24.33;21.00;;;;;4.60;81.42;101323.81;4999120;28;45267;-76
2022/01/10 09:20:10;;;;;;;;;24.67;24.00;;;;;4.73;81.06;101321.75;4981103;28;45538;-76
2022/01/10 09:22:35;;;;;;;;;25.33;21.33;;;;;4.81;80.75;101320.34;4998308;28;45399;-80
2022/01/10 09:25:01;;;;;;;;;30.33;24.00;;;;;4.67;80.01;101284.09;4998754;28;45470;-81
2022/01/10 09:27:27;;;;;;;;;29.33;25.67;;;;;4.90;79.75;101304.16;4995837;28;45423;-82
2022/01/10 09:29:52;;;;;;;;;23.00;23.00;;;;;4.77;79.84;101281.91;4979510;28;45587;-80
2022/01/10 09:32:17;;;;;;;;;26.00;22.67;;;;;4.64;79.47;101256.13;4998164;28;45416;-82
2022/01/10 09:34:43;;;;;;;;;28.00;18.67;;;;;5.12;79.75;101347.69;4999405;28;45464;-84
2022/01/10 09:37:09;;;;;;;;;25.25;21.25;;;;;4.75;78.91;101273.13;5002361;28;45491;-82
2022/01/10 09:39:35;;;;;;;;;32.33;21.33;;;;;5.24;78.64;101358.59;5000770;28;45441;-83
2022/01/10 09:42:01;;;;;;;;;20.33;19.33;;;;;5.27;78.43;101363.91;5000115;28;45669;-80
2022/01/10 09:44:26;;;;;;;;;29.67;24.00;;;;;5.27;78.51;101371.75;5000119;28;45363;-83
2022/01/10 09:46:53;;;;;;;;;24.75;20.50;;;;;5.06;79.21;101337.88;4999800;28;45378;-81
2022/01/10 09:49:19;;;;;;;;;20.50;20.25;;;;;5.20;78.95;101345.34;5000032;28;45361;-83
2022/01/10 09:51:45;;;;;;;;;24.00;19.50;;;;;5.36;78.17;101376.44;4999696;28;45293;-84
2022/01/10 09:54:11;;;;;;;;;24.75;23.25;;;;;5.14;78.53;101364.28;4999666;28;45237;-81
2022/01/10 09:56:37;;;;;;;;;22.50;20.25;;;;;5.29;78.43;101393.59;5000387;28;45243;-81
2022/01/10 09:59:04;;;;;;;;;25.25;21.00;;;;;5.21;78.38;101382.00;5000190;28;45242;-82
2022/01/10 10:01:30;;;;;;;;;24.00;21.50;;;;;5.19;79.17;101393.19;4999395;28;45679;-80
2022/01/10 10:03:59;;;;;;;;;18.50;17.75;;;;;5.14;78.53;101393.91;4999443;28;45452;-82
2022/01/10 10:06:26;;;;;;;;;28.25;25.50;;;;;5.00;79.16;101407.22;4999906;28;45254;-83
2022/01/10 10:08:52;;;;;;;;;29.67;25.67;;;;;4.77;79.72;101388.91;4999647;28;45409;-83
2022/01/10 10:11:17;;;;;;;;;21.00;17.50;;;;;4.52;80.06;101347.84;4999835;28;45311;-83
2022/01/10 10:13:55;;;;;;;;;30.67;26.67;;;;;4.83;79.98;101373.47;5000311;28;45364;-82
2022/01/10 10:16:22;;;;;;;;;31.67;27.00;;;;;5.08;79.80;101395.38;5002389;28;45311;-88
2022/01/10 10:18:48;;;;;;;;;30.67;26.00;;;;;5.19;79.88;101393.19;5002770;28;45403;-84
2022/01/10 10:21:16;;;;;;;;;30.00;23.50;;;;;5.39;79.02;101414.03;4998497;28;48624;-81
2022/01/10 10:23:46;;;;;;;;;27.00;24.33;;;;;4.88;79.12;101325.81;5001199;28;45442;-87
2022/01/10 10:26:21;;;;;;;;;36.33;27.67;;;;;5.49;79.20;101430.97;4989799;28;45614;-81
2022/01/10 10:28:48;;;;;;;;;35.67;29.33;;;;;5.28;78.70;101377.88;4982319;28;45618;-79
2022/01/10 10:31:24;;;;;;;;;31.00;26.67;;;;;5.58;79.43;101428.69;4999700;28;46512;-81
2022/01/10 10:33:51;;;;;;;;;22.75;20.75;;;;;5.67;78.72;101426.44;5003536;28;45350;-82
2022/01/10 10:36:17;;;;;;;;;26.33;26.33;;;;;5.30;78.43;101360.53;5002140;28;45242;-85
2022/01/10 10:38:43;;;;;;;;;34.50;31.25;;;;;5.53;78.46;101384.94;4999717;28;45352;-86
2022/01/10 10:41:08;;;;;;;;;33.25;27.50;;;;;5.50;78.42;101377.00;5001611;28;45376;-84
2022/01/10 10:43:37;;;;;;;;;28.75;28.75;;;;;5.86;78.22;101434.97;5000754;28;45330;-85
2022/01/10 10:46:11;;;;;;;;;30.00;30.00;;;;;5.91;77.44;101439.59;5002603;28;45346;-80
2022/01/10 10:48:38;;;;;;;;;29.50;24.50;;;;;5.79;77.53;101418.19;5005650;28;45395;-85
2022/01/10 10:51:03;;;;;;;;;42.00;31.25;;;;;5.71;77.29;101427.47;4985237;28;46523;-82
2022/01/10 10:53:30;;;;;;;;;30.25;26.75;;;;;5.93;78.21;101453.59;5003230;28;45269;-81
2022/01/10 10:55:58;;;;;;;;;37.75;33.25;;;;;5.71;77.54;101406.53;5002818;28;45211;-83
2022/01/10 10:58:25;;;;;;;;;40.25;37.25;;;;;5.98;77.72;101462.53;5004048;28;45143;-85
2022/01/10 11:00:54;;;;;;;;;41.25;38.00;;;;;5.95;78.55;101464.13;5001349;28;45339;-82
2022/01/10 11:03:21;;;;;;;;;41.75;39.00;;;;;5.64;78.04;101410.63;5000705;28;45366;-85
2022/01/10 11:05:47;;;;;;;;;46.00;32.00;;;;;5.81;78.39;101432.19;5001107;28;45337;-81
2022/01/10 11:08:13;;;;;;;;;44.33;37.33;;;;;6.05;77.88;101460.13;5001957;28;45239;-79
2022/01/10 11:10:39;;;;;;;;;37.33;33.33;;;;;5.84;78.25;101427.06;5000174;28;45226;-88
2022/01/10 11:13:06;;;;;;;;;37.33;36.67;;;;;5.85;78.22;101430.56;5000019;28;45577;-86
2022/01/10 11:15:32;;;;;;;;;43.75;37.00;;;;;5.95;77.60;101435.34;5001402;28;45519;-80
2022/01/10 12:02:47;;;;;;;;;38.50;29.50;;;;;4.32;83.41;101502.63;5091679;27;1586591;-79
2022/01/10 12:05:12;;;;;;;;;36.33;31.00;;;;;4.41;83.97;101494.31;5121768;27;46308;-79
2022/01/10 12:07:38;;;;;;;;;37.00;33.33;;;;;4.64;83.64;101504.03;5151223;27;45451;-79
2022/01/10 12:10:08;;;;;;;;;35.67;32.67;;;;;4.79;82.90;101501.22;5147585;27;45279;-80